Artemus, Kentucky
Current Conditions -  °F | °C
As of 6:15 PM on Saturday 25 Oct 2014 (Local Time) from K1A6 Reporting Station
Scattered Clouds Scattered Clouds  
Wind Chill: 66°   Ceiling: Unl
Heat Index: 66°   Visibility: 10mi
Dew Point: 52°   Wind: 0mph
Humidity: 60%   Direction: NA
Pressure: 30.01"   Gusts: NA
Location:  36.83°N, 83.84°W
Report Text: K1A6 252215Z AUTO 00000KT 10SM SCT038 SCT046 19/11 A3001 RMK AO2 T01890109
Loading
Personal Weather Stations






























Interactive Weather Map New forecast layout! Learn more

10-Day Weather Forecast

Advertisements
Track Severe Weather on mobile